createdAt,value
2022-09-10T00:01:36.791Z,21.65
2022-09-10T00:04:11.807Z,24.27
2022-09-10T00:06:40.242Z,24.83
2022-09-10T00:09:09.290Z,22.95
2022-09-10T00:11:41.212Z,26.45
2022-09-10T00:14:19.909Z,23.50
2022-09-10T00:16:48.959Z,23.50
2022-09-10T00:19:18.225Z,20.73
2022-09-10T00:21:45.853Z,27.57
2022-09-10T00:24:14.043Z,22.75
2022-09-10T00:26:42.581Z,23.00
2022-09-10T00:29:12.769Z,21.63
2022-09-10T00:31:40.548Z,23.48
2022-09-10T00:34:09.292Z,23.00
2022-09-10T00:36:44.002Z,25.17
2022-09-10T00:39:15.921Z,22.15
2022-09-10T00:41:46.896Z,24.13
2022-09-10T00:44:44.573Z,21.77
2022-09-10T00:47:21.940Z,23.92
2022-09-10T00:50:02.589Z,19.88
2022-09-10T00:52:30.675Z,24.10
2022-09-10T00:54:59.493Z,23.98
2022-09-10T00:57:29.166Z,25.50
2022-09-10T01:00:05.120Z,22.20
2022-09-10T01:02:32.788Z,29.55
2022-09-10T01:05:03.160Z,28.60
2022-09-10T01:07:33.714Z,30.15
2022-09-10T01:10:23.281Z,26.45
2022-09-10T01:12:59.489Z,27.43
2022-09-10T01:16:15.533Z,28.77
2022-09-10T01:19:01.910Z,23.15
2022-09-10T01:21:46.877Z,27.13
2022-09-10T01:25:03.172Z,27.10
2022-09-10T01:27:48.602Z,30.13
2022-09-10T01:30:30.702Z,26.30
2022-09-10T01:33:23.921Z,29.92
2022-09-10T01:36:02.306Z,26.50
2022-09-10T01:38:36.734Z,28.38
2022-09-10T01:41:05.953Z,26.73
2022-09-10T01:43:42.011Z,28.52
2022-09-10T01:46:48.821Z,29.23
2022-09-10T01:49:41.748Z,24.60
2022-09-10T01:52:33.712Z,27.20
2022-09-10T01:55:17.518Z,28.45
2022-09-10T01:58:29.892Z,32.85
2022-09-10T02:01:15.767Z,30.58
2022-09-10T02:03:47.986Z,31.23
2022-09-10T02:06:22.911Z,24.27
2022-09-10T02:08:54.367Z,29.35
2022-09-10T02:11:22.785Z,31.80
2022-09-10T02:13:53.467Z,31.58
2022-09-10T02:16:58.850Z,31.85
2022-09-10T02:19:27.828Z,28.58
2022-09-10T02:21:58.821Z,31.27
2022-09-10T02:24:26.971Z,34.25
2022-09-10T02:26:54.763Z,34.35
2022-09-10T02:29:23.442Z,34.20
2022-09-10T02:31:51.438Z,37.55
2022-09-10T02:34:20.355Z,32.33
2022-09-10T02:39:17.185Z,35.42
2022-09-10T02:41:48.131Z,29.80
2022-09-10T02:44:16.259Z,29.85
2022-09-10T02:46:45.165Z,33.50
2022-09-10T02:49:12.697Z,37.47
2022-09-10T02:51:42.338Z,38.80
2022-09-10T02:54:10.404Z,40.58
2022-09-10T02:56:37.898Z,31.55
2022-09-10T02:59:06.302Z,34.97
2022-09-10T03:01:34.903Z,35.33
2022-09-10T03:04:05.848Z,38.85
2022-09-10T03:06:33.704Z,34.85
2022-09-10T03:09:02.230Z,35.90
2022-09-10T03:11:29.778Z,37.67
2022-09-10T03:13:59.405Z,35.65
2022-09-10T03:16:27.685Z,38.63
2022-09-10T03:18:56.194Z,36.30
2022-09-10T03:21:25.283Z,29.25
2022-09-10T03:23:54.132Z,29.77
2022-09-10T03:26:26.114Z,28.27
2022-09-10T03:28:54.794Z,29.73
2022-09-10T03:31:27.213Z,26.60
2022-09-10T03:33:55.034Z,27.77
2022-09-10T03:36:22.931Z,26.20
2022-09-10T03:38:51.092Z,27.40
2022-09-10T03:41:19.024Z,31.30
2022-09-10T03:43:47.855Z,29.20
2022-09-10T03:46:16.165Z,26.67
2022-09-10T03:48:47.010Z,26.63
2022-09-10T03:51:16.231Z,25.90
2022-09-10T03:53:44.216Z,26.38
2022-09-10T03:56:12.342Z,24.25
2022-09-10T03:58:41.134Z,28.30
2022-09-10T04:01:10.328Z,26.08
2022-09-10T04:03:42.267Z,23.90
2022-09-10T04:06:15.799Z,25.63
2022-09-10T04:08:44.335Z,28.63
2022-09-10T04:11:14.396Z,22.52
2022-09-10T04:13:43.226Z,25.15
2022-09-10T04:16:12.690Z,25.85
2022-09-10T04:18:40.989Z,29.27
2022-09-10T04:21:09.096Z,23.05
2022-09-10T04:23:41.281Z,25.58
2022-09-10T04:26:18.761Z,25.63
2022-09-10T04:28:49.637Z,26.08
2022-09-10T04:31:18.481Z,30.42
2022-09-10T04:33:46.781Z,30.65
2022-09-10T04:36:17.272Z,27.85
2022-09-10T04:38:45.305Z,29.60
2022-09-10T04:41:15.777Z,27.73
2022-09-10T04:43:44.427Z,28.50
2022-09-10T04:46:12.691Z,34.80
2022-09-10T04:48:43.246Z,29.23
2022-09-10T04:51:17.683Z,32.30
2022-09-10T04:53:55.292Z,38.50
2022-09-10T04:56:27.908Z,30.98
2022-09-10T04:58:55.855Z,38.83
2022-09-10T05:01:23.783Z,34.58
2022-09-10T05:03:54.564Z,23.92
2022-09-10T05:06:23.404Z,30.30
2022-09-10T05:08:51.504Z,30.33
2022-09-10T05:11:19.803Z,22.40
2022-09-10T05:13:47.935Z,21.35
2022-09-10T05:16:19.105Z,29.23
2022-09-10T05:18:46.848Z,39.95
2022-09-10T05:21:15.742Z,49.35
2022-09-10T05:23:45.178Z,31.08
2022-09-10T05:26:12.870Z,25.42
2022-09-10T05:28:40.583Z,23.70
2022-09-10T05:31:10.207Z,36.00
2022-09-10T05:33:40.844Z,22.77
2022-09-10T05:36:10.845Z,34.88
2022-09-10T05:38:40.351Z,31.40
2022-09-10T05:41:12.217Z,25.80
2022-09-10T05:43:45.037Z,24.23
2022-09-10T05:46:13.568Z,31.38
2022-09-10T05:48:45.786Z,24.95
2022-09-10T05:51:14.837Z,22.95
2022-09-10T05:53:43.895Z,25.83
2022-09-10T05:56:12.896Z,23.17
2022-09-10T05:58:45.327Z,28.42
2022-09-10T06:01:15.479Z,23.80
2022-09-10T06:03:45.158Z,29.05
2022-09-10T06:06:13.241Z,27.02
2022-09-10T06:08:51.841Z,25.25
2022-09-10T06:11:27.845Z,24.08
2022-09-10T06:13:57.917Z,27.75
2022-09-10T06:16:26.068Z,23.20
2022-09-10T06:18:55.374Z,25.38
2022-09-10T06:21:28.141Z,24.65
2022-09-10T06:23:57.927Z,21.88
2022-09-10T06:26:27.899Z,22.67
2022-09-10T06:28:59.335Z,20.67
2022-09-10T06:31:27.766Z,21.02
2022-09-10T06:33:56.691Z,19.17
2022-09-10T06:36:28.849Z,25.02
2022-09-10T06:38:58.111Z,23.25
2022-09-10T06:41:27.123Z,22.45
2022-09-10T06:44:01.407Z,25.90
2022-09-10T06:49:25.404Z,22.60
2022-09-10T06:51:53.681Z,24.48
2022-09-10T06:54:21.616Z,24.02
2022-09-10T06:56:49.586Z,22.20
2022-09-10T06:59:18.853Z,24.13
2022-09-10T07:01:50.444Z,26.50
2022-09-10T07:04:20.754Z,31.10
2022-09-10T07:06:49.909Z,22.45
2022-09-10T07:09:18.069Z,24.63
2022-09-10T07:12:00.279Z,25.33
2022-09-10T07:14:33.252Z,23.80
2022-09-10T07:17:05.698Z,26.42
2022-09-10T07:19:36.333Z,22.15
2022-09-10T07:22:07.182Z,21.90
2022-09-10T07:24:35.445Z,21.77
2022-09-10T07:27:07.721Z,24.60
2022-09-10T07:29:36.822Z,21.03
2022-09-10T07:32:07.314Z,20.02
2022-09-10T07:34:37.846Z,20.88
2022-09-10T07:37:07.649Z,21.35
2022-09-10T07:39:35.772Z,19.17
2022-09-10T07:42:04.153Z,22.13
2022-09-10T07:44:36.285Z,23.92
2022-09-10T07:47:04.074Z,25.60
2022-09-10T07:49:33.169Z,25.73
2022-09-10T07:52:00.887Z,31.08
2022-09-10T07:54:35.731Z,32.17
2022-09-10T07:57:05.299Z,28.45
2022-09-10T07:59:34.482Z,30.52
2022-09-10T08:02:06.586Z,28.45
2022-09-10T08:04:37.590Z,32.08
2022-09-10T08:07:09.450Z,34.47
2022-09-10T08:09:39.558Z,30.45
2022-09-10T08:12:10.272Z,32.85
2022-09-10T08:14:38.165Z,32.25
2022-09-10T08:17:06.165Z,35.03
2022-09-10T08:19:39.707Z,30.63
2022-09-10T08:22:12.713Z,33.45
2022-09-10T08:24:46.956Z,38.47
2022-09-10T08:27:17.036Z,29.88
2022-09-10T08:29:46.503Z,31.60
2022-09-10T08:32:14.425Z,33.85
2022-09-10T08:34:42.782Z,29.80
2022-09-10T08:37:12.655Z,28.80
2022-09-10T08:39:41.095Z,24.50
2022-09-10T08:42:41.639Z,29.52
2022-09-10T08:45:23.641Z,25.83
2022-09-10T08:48:20.771Z,25.30
2022-09-10T08:51:03.839Z,26.13
2022-09-10T08:54:02.707Z,36.13
2022-09-10T08:56:33.067Z,32.15
2022-09-10T09:02:02.375Z,33.50
2022-09-10T09:04:50.201Z,35.22
2022-09-10T09:07:21.736Z,33.80
2022-09-10T09:09:56.205Z,32.33
2022-09-10T09:12:53.636Z,31.73
2022-09-10T09:15:51.927Z,30.38
2022-09-10T09:21:01.033Z,31.73
2022-09-10T09:24:13.663Z,31.98
2022-09-10T09:26:50.115Z,35.25
2022-09-10T09:30:00.713Z,34.42
2022-09-10T09:32:40.826Z,33.70
2022-09-10T09:38:14.899Z,26.98
2022-09-10T09:40:56.374Z,32.03
2022-09-10T09:43:56.616Z,32.50
2022-09-10T09:46:26.298Z,32.65
2022-09-10T09:49:02.105Z,30.08
2022-09-10T09:51:35.523Z,25.95
2022-09-10T09:54:46.607Z,25.92
2022-09-10T09:57:01.652Z,27.10
2022-09-10T09:59:34.968Z,25.38
2022-09-10T10:02:15.293Z,24.30
2022-09-10T10:05:04.298Z,24.88
2022-09-10T10:07:36.372Z,28.40
2022-09-10T10:10:07.596Z,30.17
2022-09-10T10:12:48.598Z,27.33
2022-09-10T10:15:42.089Z,29.70
2022-09-10T10:18:31.840Z,23.95
2022-09-10T10:21:30.929Z,22.20
2022-09-10T10:23:59.216Z,23.92
2022-09-10T10:26:33.233Z,24.20
2022-09-10T10:29:18.092Z,26.00
2022-09-10T10:31:49.793Z,21.95
2022-09-10T10:34:45.520Z,26.42
2022-09-10T10:37:50.633Z,23.65
2022-09-10T10:40:48.776Z,20.05
2022-09-10T10:43:32.249Z,26.00
2022-09-10T10:46:10.031Z,19.67
2022-09-10T10:48:57.854Z,18.95
2022-09-10T10:52:04.141Z,20.63
2022-09-10T10:55:07.671Z,16.13
2022-09-10T10:57:58.907Z,16.92
2022-09-10T11:00:27.753Z,17.50
2022-09-10T11:03:42.920Z,15.60
2022-09-10T11:06:20.857Z,15.77
2022-09-10T11:09:02.690Z,14.55
2022-09-10T11:11:56.333Z,16.20
2022-09-10T11:14:43.316Z,15.82
2022-09-10T11:17:30.253Z,14.77
2022-09-10T11:20:29.628Z,16.27
2022-09-10T11:23:13.591Z,18.30
2022-09-10T11:25:53.257Z,15.95
2022-09-10T11:28:31.650Z,19.92
2022-09-10T11:31:25.262Z,20.20
2022-09-10T11:34:04.887Z,17.95
2022-09-10T11:36:49.701Z,16.42
2022-09-10T11:39:34.037Z,17.42
2022-09-10T11:42:16.454Z,17.08
2022-09-10T11:45:22.135Z,19.85
2022-09-10T11:48:05.971Z,20.40
2022-09-10T11:51:02.288Z,19.05
2022-09-10T11:53:30.562Z,19.42
2022-09-10T11:56:31.612Z,18.80
2022-09-10T11:59:36.801Z,18.67
2022-09-10T12:02:50.602Z,21.42
2022-09-10T12:06:00.936Z,17.58
2022-09-10T12:08:59.885Z,21.38
2022-09-10T12:11:53.511Z,21.43
2022-09-10T12:14:21.852Z,23.85
2022-09-10T12:17:04.010Z,23.42
2022-09-10T12:19:46.016Z,24.75
2022-09-10T12:22:29.403Z,19.58
2022-09-10T12:25:05.239Z,23.25
2022-09-10T12:27:57.183Z,20.67
2022-09-10T12:30:28.544Z,20.50
2022-09-10T12:33:00.627Z,20.08
2022-09-10T12:35:37.745Z,20.00
2022-09-10T12:39:01.795Z,21.60
2022-09-10T12:41:29.260Z,16.45
2022-09-10T12:44:02.272Z,16.38
2022-09-10T12:46:31.776Z,18.65
2022-09-10T12:49:02.370Z,18.92
2022-09-10T12:51:51.784Z,18.63
2022-09-10T12:54:55.816Z,17.42
2022-09-10T12:58:13.245Z,16.40
2022-09-10T13:00:56.077Z,15.73
2022-09-10T13:03:29.122Z,16.80
2022-09-10T13:06:04.327Z,16.73
2022-09-10T13:08:43.844Z,15.88
2022-09-10T13:11:25.165Z,17.83
2022-09-10T13:14:02.497Z,16.50
2022-09-10T13:16:30.531Z,17.42
2022-09-10T13:19:13.517Z,16.05
2022-09-10T13:21:41.512Z,15.30
2022-09-10T13:24:34.483Z,16.35
2022-09-10T13:27:22.724Z,18.02
2022-09-10T13:30:21.989Z,18.27
2022-09-10T13:32:57.631Z,18.27
2022-09-10T13:35:47.359Z,17.15
2022-09-10T13:39:03.163Z,20.67
2022-09-10T13:42:08.901Z,19.08
2022-09-10T13:45:11.935Z,18.17
2022-09-10T13:48:25.095Z,18.30
2022-09-10T13:51:11.003Z,21.88
2022-09-10T13:53:45.498Z,20.30
2022-09-10T13:56:29.592Z,20.67
2022-09-10T13:59:02.277Z,19.02
2022-09-10T14:01:59.720Z,18.17
2022-09-10T14:04:44.950Z,20.70
2022-09-10T14:07:29.207Z,19.55
2022-09-10T14:10:02.621Z,18.60
2022-09-10T14:12:36.399Z,21.30
2022-09-10T14:15:08.068Z,18.98
2022-09-10T14:17:51.410Z,19.42
2022-09-10T14:20:26.090Z,20.38
2022-09-10T14:23:04.088Z,21.50
2022-09-10T14:25:40.352Z,26.88
2022-09-10T14:28:17.168Z,23.92
2022-09-10T14:30:47.047Z,26.08
2022-09-10T14:33:36.045Z,25.42
2022-09-10T14:36:18.058Z,23.45
2022-09-10T14:39:05.164Z,24.50
2022-09-10T14:41:36.615Z,27.08
2022-09-10T14:44:22.778Z,28.92
2022-09-10T14:46:58.549Z,33.53
2022-09-10T14:49:35.678Z,32.72
2022-09-10T14:52:05.253Z,31.50
2022-09-10T14:54:35.179Z,30.52
2022-09-10T14:57:14.014Z,34.25
2022-09-10T14:59:46.600Z,30.80
2022-09-10T15:02:26.848Z,30.55
2022-09-10T15:04:55.757Z,29.27
2022-09-10T15:07:23.916Z,26.65
2022-09-10T15:09:54.204Z,27.67
2022-09-10T15:12:30.715Z,26.95
2022-09-10T15:14:59.452Z,27.67
2022-09-10T15:17:27.835Z,27.45
2022-09-10T15:19:56.213Z,30.83
2022-09-10T15:22:28.265Z,32.78
2022-09-10T15:25:12.798Z,24.38
2022-09-10T15:27:41.899Z,25.58
2022-09-10T15:30:10.544Z,24.83
2022-09-10T15:32:38.533Z,22.90
2022-09-10T15:35:07.239Z,24.17
2022-09-10T15:37:35.453Z,25.67
2022-09-10T15:40:05.204Z,22.60
2022-09-10T15:42:33.974Z,22.05
2022-09-10T15:45:03.835Z,23.98
2022-09-10T15:47:33.675Z,21.53
2022-09-10T15:50:01.768Z,20.83
2022-09-10T15:52:30.562Z,22.05
2022-09-10T15:54:58.393Z,21.88
2022-09-10T15:57:26.681Z,23.90
2022-09-10T15:59:55.264Z,18.98
2022-09-10T16:02:26.407Z,19.77
2022-09-10T16:04:54.876Z,18.85
2022-09-10T16:07:22.977Z,18.52
2022-09-10T16:09:50.862Z,17.15
2022-09-10T16:12:19.134Z,18.23
2022-09-10T16:14:47.512Z,17.58
2022-09-10T16:17:17.394Z,18.23
2022-09-10T16:19:45.697Z,25.55
2022-09-10T16:22:16.444Z,20.92
2022-09-10T16:24:48.169Z,22.02
2022-09-10T16:27:17.684Z,20.70
2022-09-10T16:29:47.186Z,20.73
2022-09-10T16:32:15.855Z,22.33
2022-09-10T16:34:45.144Z,22.15
2022-09-10T16:37:13.753Z,18.67
2022-09-10T16:39:41.926Z,17.23
2022-09-10T16:42:10.357Z,16.98
2022-09-10T16:44:38.670Z,16.73
2022-09-10T16:47:08.225Z,15.48
2022-09-10T16:49:36.990Z,15.45
2022-09-10T16:52:05.422Z,16.05
2022-09-10T16:54:33.635Z,17.80
2022-09-10T16:57:02.314Z,15.85
2022-09-10T16:59:30.692Z,15.50
2022-09-10T17:02:00.618Z,16.98
2022-09-10T17:04:29.497Z,15.25
2022-09-10T17:06:58.700Z,15.32
2022-09-10T17:09:26.765Z,15.25
2022-09-10T17:11:55.526Z,15.80
2022-09-10T17:14:23.667Z,14.43
2022-09-10T17:16:52.224Z,17.25
2022-09-10T17:19:23.907Z,14.93
2022-09-10T17:21:55.832Z,17.50
2022-09-10T17:24:26.647Z,16.63
2022-09-10T17:26:55.822Z,18.80
2022-09-10T17:29:26.435Z,19.92
2022-09-10T17:31:58.689Z,21.27
2022-09-10T17:34:28.353Z,20.67
2022-09-10T17:36:56.687Z,23.13
2022-09-10T17:39:28.340Z,21.90
2022-09-10T17:41:56.639Z,23.00
2022-09-10T17:44:25.772Z,25.05
2022-09-10T17:46:53.957Z,24.13
2022-09-10T17:49:21.787Z,22.92
2022-09-10T17:51:50.272Z,22.20
2022-09-10T17:54:18.521Z,20.23
2022-09-10T17:56:46.679Z,22.70
2022-09-10T17:59:14.884Z,24.88
2022-09-10T18:01:43.402Z,29.50
2022-09-10T18:04:15.836Z,23.38
2022-09-10T18:06:47.875Z,27.67
2022-09-10T18:09:18.448Z,27.35
2022-09-10T18:11:46.421Z,26.58
2022-09-10T18:14:20.791Z,30.52
2022-09-10T18:16:51.301Z,28.25
2022-09-10T18:19:19.126Z,27.27
2022-09-10T18:21:48.784Z,29.60
2022-09-10T18:24:24.233Z,29.65
2022-09-10T18:26:54.260Z,30.25
2022-09-10T18:29:30.163Z,29.50
2022-09-10T18:32:03.339Z,30.45
2022-09-10T18:34:31.826Z,27.38
2022-09-10T18:37:02.785Z,31.48
2022-09-10T18:39:33.723Z,29.80
2022-09-10T18:42:02.509Z,28.80
2022-09-10T18:44:33.708Z,25.80
2022-09-10T18:47:02.155Z,28.35
2022-09-10T18:49:30.363Z,35.85
2022-09-10T18:51:58.558Z,29.02
2022-09-10T18:54:30.643Z,30.58
2022-09-10T18:56:59.222Z,32.05
2022-09-10T18:59:27.990Z,30.80
2022-09-10T19:01:56.572Z,32.83
2022-09-10T19:04:29.388Z,37.80
2022-09-10T19:06:58.831Z,32.40
2022-09-10T19:09:30.562Z,32.85
2022-09-10T19:12:03.491Z,40.53
2022-09-10T19:14:35.826Z,38.13
2022-09-10T19:17:04.455Z,36.08
2022-09-10T19:19:36.652Z,35.45
2022-09-10T19:22:10.760Z,33.88
2022-09-10T19:24:56.182Z,36.75
2022-09-10T19:27:25.836Z,30.13
2022-09-10T19:29:54.330Z,28.98
2022-09-10T19:32:22.578Z,31.95
2022-09-10T19:34:52.161Z,31.63
2022-09-10T19:37:21.056Z,30.08
2022-09-10T19:39:49.240Z,33.90
2022-09-10T19:42:17.442Z,27.83
2022-09-10T19:44:47.420Z,30.30
2022-09-10T19:47:20.040Z,27.75
2022-09-10T19:49:49.104Z,29.15
2022-09-10T19:52:17.296Z,31.83
2022-09-10T19:54:45.189Z,30.92
2022-09-10T19:57:14.346Z,31.90
2022-09-10T19:59:43.019Z,31.40
2022-09-10T20:02:15.576Z,28.73
2022-09-10T20:04:45.698Z,30.25
2022-09-10T20:07:13.658Z,27.15
2022-09-10T20:09:42.413Z,29.45
2022-09-10T20:12:10.886Z,23.52
2022-09-10T20:14:39.603Z,26.23
2022-09-10T20:17:08.714Z,22.92
2022-09-10T20:19:37.417Z,22.10
2022-09-10T20:22:06.051Z,25.92
2022-09-10T20:24:34.535Z,27.70
2022-09-10T20:27:02.825Z,25.95
2022-09-10T20:29:35.952Z,26.48
2022-09-10T20:32:04.882Z,23.60
2022-09-10T20:34:35.282Z,26.30
2022-09-10T20:37:03.683Z,22.48
2022-09-10T20:39:32.423Z,22.40
2022-09-10T20:42:00.923Z,19.38
2022-09-10T20:44:30.282Z,19.17
2022-09-10T20:46:58.410Z,20.80
2022-09-10T20:49:26.563Z,18.17
2022-09-10T20:51:54.394Z,19.60
2022-09-10T20:54:22.737Z,16.83
2022-09-10T20:56:50.821Z,19.27
2022-09-10T20:59:26.845Z,17.38
2022-09-10T21:01:56.905Z,18.08
2022-09-10T21:04:25.346Z,17.83
2022-09-10T21:06:55.332Z,16.48
2022-09-10T21:09:24.569Z,17.58
2022-09-10T21:11:52.812Z,17.27
2022-09-10T21:14:21.249Z,17.88
2022-09-10T21:16:49.851Z,16.00
2022-09-10T21:19:18.923Z,18.50
2022-09-10T21:21:49.008Z,20.37
2022-09-10T21:24:22.736Z,18.58
2022-09-10T21:26:51.494Z,22.80
2022-09-10T21:29:21.594Z,18.90
2022-09-10T21:31:50.936Z,19.33
2022-09-10T21:34:19.447Z,24.75
2022-09-10T21:36:47.435Z,23.80
2022-09-10T21:39:18.186Z,24.48
2022-09-10T21:41:50.133Z,23.88
2022-09-10T21:44:22.183Z,22.90
2022-09-10T21:46:51.277Z,25.00
2022-09-10T21:49:20.628Z,29.55
2022-09-10T21:51:49.003Z,25.17
2022-09-10T21:54:24.708Z,21.77
2022-09-10T21:56:53.478Z,23.55
2022-09-10T21:59:22.374Z,26.17
2022-09-10T22:01:51.857Z,24.37
2022-09-10T22:04:23.133Z,24.58
2022-09-10T22:06:55.417Z,27.83
2022-09-10T22:09:24.705Z,27.83
2022-09-10T22:11:56.681Z,27.15
2022-09-10T22:14:25.598Z,28.73
2022-09-10T22:16:54.373Z,28.15
2022-09-10T22:19:26.228Z,26.85
2022-09-10T22:21:56.923Z,28.98
2022-09-10T22:24:26.382Z,29.40
2022-09-10T22:29:23.227Z,28.15
2022-09-10T22:31:51.093Z,35.10
2022-09-10T22:34:19.776Z,30.98
2022-09-10T22:36:49.516Z,33.72
2022-09-10T22:39:21.074Z,33.13
2022-09-10T22:41:51.266Z,33.85
2022-09-10T22:46:49.398Z,33.60
2022-09-10T22:49:18.790Z,32.90
2022-09-10T22:51:46.844Z,37.22
2022-09-10T22:54:15.094Z,37.10
2022-09-10T22:56:44.738Z,35.05
2022-09-10T22:59:14.813Z,35.63
2022-09-10T23:04:12.349Z,35.67
2022-09-10T23:06:40.674Z,35.92
2022-09-10T23:09:16.217Z,34.35
2022-09-10T23:11:45.540Z,36.20
2022-09-10T23:14:22.419Z,35.57
2022-09-10T23:16:52.026Z,39.63
2022-09-10T23:19:24.045Z,37.30
2022-09-10T23:21:55.178Z,40.70
2022-09-10T23:24:26.574Z,37.67
2022-09-10T23:26:55.428Z,43.15
2022-09-10T23:29:24.172Z,45.22
2022-09-10T23:31:55.865Z,44.88
2022-09-10T23:34:23.979Z,45.63
2022-09-10T23:36:53.209Z,48.03
2022-09-10T23:39:24.421Z,43.85
2022-09-10T23:41:57.125Z,45.80
2022-09-10T23:44:25.580Z,35.40
2022-09-10T23:46:53.954Z,35.40
2022-09-10T23:49:24.041Z,41.65
2022-09-10T23:54:20.661Z,40.13
2022-09-10T23:56:48.831Z,45.60
2022-09-10T23:59:16.447Z,43.75
